createdAt,value
2023-03-10T00:00:00.770Z,24.60
2023-03-10T00:04:53.748Z,25.50
2023-03-10T00:09:46.328Z,20.88
2023-03-10T00:14:38.980Z,17.38
2023-03-10T00:19:31.442Z,18.05
2023-03-10T00:24:23.443Z,24.92
2023-03-10T00:29:17.477Z,22.13
2023-03-10T00:34:11.854Z,23.55
2023-03-10T00:39:05.406Z,21.27
2023-03-10T00:43:57.844Z,21.85
2023-03-10T00:48:50.202Z,19.42
2023-03-10T00:53:42.491Z,21.55
2023-03-10T00:58:35.351Z,19.37
2023-03-10T01:03:28.081Z,19.10
2023-03-10T01:08:20.874Z,15.25
2023-03-10T01:13:13.691Z,19.55
2023-03-10T01:18:06.350Z,14.68
2023-03-10T01:22:58.800Z,15.35
2023-03-10T01:27:50.784Z,19.70
2023-03-10T01:32:43.835Z,16.70
2023-03-10T01:37:35.991Z,15.23
2023-03-10T01:42:28.047Z,18.33
2023-03-10T01:47:19.914Z,22.47
2023-03-10T01:52:21.418Z,16.65
2023-03-10T01:57:16.606Z,20.42
2023-03-10T02:02:10.120Z,15.85
2023-03-10T02:07:05.316Z,16.08
2023-03-10T02:11:58.408Z,18.02
2023-03-10T02:22:19.471Z,17.67
2023-03-10T02:27:26.670Z,18.40
2023-03-10T02:32:19.536Z,14.88
2023-03-10T02:37:40.910Z,18.80
2023-03-10T02:42:36.197Z,15.52
2023-03-10T02:47:28.150Z,15.95
2023-03-10T02:52:35.630Z,16.13
2023-03-10T02:57:27.616Z,19.85
2023-03-10T03:02:20.743Z,14.60
2023-03-10T03:07:12.793Z,15.35
2023-03-10T03:12:05.275Z,13.73
2023-03-10T03:16:59.662Z,15.27
2023-03-10T03:21:52.086Z,15.10
2023-03-10T03:26:44.772Z,14.47
2023-03-10T03:31:41.730Z,12.25
2023-03-10T03:36:38.665Z,12.77
2023-03-10T03:41:33.329Z,14.32
2023-03-10T03:46:25.668Z,13.65
2023-03-10T03:51:18.325Z,13.60
2023-03-10T03:56:10.284Z,15.80
2023-03-10T04:01:03.373Z,12.80
2023-03-10T04:06:00.325Z,13.27
2023-03-10T04:10:53.785Z,14.35
2023-03-10T04:15:48.033Z,12.30
2023-03-10T04:20:40.302Z,10.80
2023-03-10T04:25:34.243Z,10.55
2023-03-10T04:30:29.967Z,11.82
2023-03-10T04:35:25.451Z,10.38
2023-03-10T04:40:18.096Z,11.57
2023-03-10T04:45:10.881Z,12.67
2023-03-10T04:50:04.938Z,11.43
2023-03-10T04:54:56.877Z,14.20
2023-03-10T04:59:53.935Z,10.45
2023-03-10T05:04:47.522Z,10.50
2023-03-10T05:09:39.787Z,10.32
2023-03-10T05:14:32.202Z,10.83
2023-03-10T05:19:24.497Z,11.07
2023-03-10T05:24:17.796Z,13.50
2023-03-10T05:29:09.927Z,9.63
2023-03-10T05:34:09.998Z,11.60
2023-03-10T05:39:02.243Z,12.13
2023-03-10T05:43:54.754Z,9.60
2023-03-10T05:48:47.590Z,11.27
2023-03-10T05:53:40.783Z,11.40
2023-03-10T05:58:37.608Z,11.27
2023-03-10T06:03:31.059Z,10.45
2023-03-10T06:08:23.786Z,12.17
2023-03-10T06:13:16.291Z,9.02
2023-03-10T06:18:08.056Z,9.43
2023-03-10T06:22:59.890Z,11.25
2023-03-10T06:27:51.707Z,12.15
2023-03-10T06:32:43.635Z,10.88
2023-03-10T06:37:35.679Z,8.43
2023-03-10T06:42:27.770Z,9.10
2023-03-10T06:47:20.010Z,9.35
2023-03-10T06:52:11.843Z,10.53
2023-03-10T06:57:05.250Z,11.82
2023-03-10T07:01:57.089Z,9.98
2023-03-10T07:06:48.899Z,8.32
2023-03-10T07:11:41.355Z,9.02
2023-03-10T07:16:33.215Z,8.63
2023-03-10T07:21:25.234Z,8.45
2023-03-10T07:26:18.931Z,10.07
2023-03-10T07:31:12.459Z,9.15
2023-03-10T07:36:09.812Z,7.60
2023-03-10T07:41:02.173Z,8.82
2023-03-10T07:45:54.185Z,8.70
2023-03-10T07:50:46.071Z,7.75
2023-03-10T07:55:38.392Z,7.97
2023-03-10T08:00:30.225Z,8.87
2023-03-10T08:05:22.319Z,10.18
2023-03-10T08:10:14.445Z,8.80
2023-03-10T08:15:06.971Z,8.82
2023-03-10T08:19:59.075Z,8.07
2023-03-10T08:24:51.086Z,7.40
2023-03-10T08:29:42.904Z,9.70
2023-03-10T08:34:35.652Z,8.43
2023-03-10T08:39:28.856Z,7.68
2023-03-10T08:44:22.508Z,8.80
2023-03-10T08:49:16.070Z,8.00
2023-03-10T08:54:09.144Z,8.68
2023-03-10T09:03:52.993Z,8.65
2023-03-10T09:08:45.446Z,8.38
2023-03-10T09:13:37.339Z,9.40
2023-03-10T09:18:29.725Z,7.80
2023-03-10T09:23:21.562Z,8.68
2023-03-10T09:28:13.515Z,8.15
2023-03-10T09:33:07.717Z,7.25
2023-03-10T09:37:59.716Z,8.20
2023-03-10T09:43:03.381Z,9.38
2023-03-10T09:48:34.105Z,5.75
2023-03-10T09:53:25.961Z,7.88
2023-03-10T09:58:37.075Z,8.07
2023-03-10T10:03:52.609Z,6.38
2023-03-10T10:09:04.679Z,8.52
2023-03-10T10:14:27.862Z,7.00
2023-03-10T10:19:27.639Z,8.90
2023-03-10T10:24:20.757Z,8.82
2023-03-10T10:29:17.084Z,7.13
2023-03-10T10:34:29.170Z,7.85
2023-03-10T10:39:28.285Z,7.90
2023-03-10T10:44:20.529Z,7.40
2023-03-10T10:49:34.092Z,6.30
2023-03-10T10:54:35.104Z,6.55
2023-03-10T10:59:35.008Z,8.10
2023-03-10T11:04:30.056Z,6.65
2023-03-10T11:09:24.997Z,7.13
2023-03-10T11:14:52.672Z,5.80
2023-03-10T11:19:58.325Z,6.65
2023-03-10T11:25:22.413Z,6.20
2023-03-10T11:30:33.069Z,8.15
2023-03-10T11:35:29.706Z,8.27
2023-03-10T11:40:48.011Z,6.63
2023-03-10T11:45:45.684Z,6.18
2023-03-10T11:50:55.137Z,7.13
2023-03-10T11:55:47.464Z,6.78
2023-03-10T12:00:41.485Z,7.00
2023-03-10T12:05:42.998Z,8.35
2023-03-10T12:10:39.897Z,5.93
2023-03-10T12:15:37.237Z,5.75
2023-03-10T12:20:30.892Z,6.35
2023-03-10T12:25:29.119Z,6.53
2023-03-10T12:30:58.439Z,7.38
2023-03-10T12:35:51.518Z,6.38
2023-03-10T12:45:45.790Z,6.90
2023-03-10T12:50:49.896Z,8.45
2023-03-10T12:55:43.556Z,6.03
2023-03-10T13:00:58.679Z,5.50
2023-03-10T13:06:05.756Z,6.88
2023-03-10T13:10:59.207Z,6.32
2023-03-10T13:16:05.232Z,7.28
2023-03-10T13:21:01.813Z,5.90
2023-03-10T13:26:01.896Z,7.75
2023-03-10T13:31:16.567Z,7.00
2023-03-10T13:36:30.202Z,6.68
2023-03-10T13:41:22.434Z,6.50
2023-03-10T13:46:33.851Z,6.57
2023-03-10T13:51:32.246Z,7.93
2023-03-10T13:56:33.410Z,5.70
2023-03-10T14:01:29.478Z,5.45
2023-03-10T14:06:23.036Z,5.53
2023-03-10T14:11:41.861Z,6.60
2023-03-10T14:16:54.891Z,6.35
2023-03-10T14:22:00.937Z,5.95
2023-03-10T14:26:55.219Z,6.05
2023-03-10T14:31:51.381Z,7.20
2023-03-10T14:36:43.350Z,5.47
2023-03-10T14:41:35.468Z,7.55
2023-03-10T14:46:29.007Z,5.73
2023-03-10T14:51:34.675Z,6.97
2023-03-10T14:56:27.994Z,5.90
2023-03-10T15:01:20.931Z,5.13
2023-03-10T15:06:18.256Z,6.38
2023-03-10T15:11:10.221Z,5.95
2023-03-10T15:16:05.516Z,6.63
2023-03-10T15:21:02.120Z,5.90
2023-03-10T15:25:55.440Z,6.10
2023-03-10T15:30:47.956Z,6.50
2023-03-10T15:35:41.062Z,6.47
2023-03-10T15:45:26.632Z,20.15
2023-03-10T15:50:19.441Z,15.38
2023-03-10T15:55:14.903Z,11.00
2023-03-10T16:00:07.538Z,11.60
2023-03-10T16:04:59.385Z,15.75
2023-03-10T16:09:51.367Z,27.92
2023-03-10T16:14:43.274Z,19.83
2023-03-10T16:19:35.279Z,20.58
2023-03-10T16:24:27.212Z,21.35
2023-03-10T16:29:19.938Z,16.63
2023-03-10T16:34:11.954Z,16.80
2023-03-10T16:39:08.674Z,12.35
2023-03-10T16:44:07.096Z,13.52
2023-03-10T16:49:00.652Z,21.30
2023-03-10T16:53:54.087Z,11.82
2023-03-10T16:58:46.036Z,15.10
2023-03-10T17:03:40.761Z,13.50
2023-03-10T17:08:32.679Z,11.65
2023-03-10T17:13:24.582Z,12.90
2023-03-10T17:18:19.476Z,14.02
2023-03-10T17:23:11.663Z,17.50
2023-03-10T17:28:05.029Z,13.70
2023-03-10T17:32:56.976Z,10.98
2023-03-10T17:37:48.859Z,12.65
2023-03-10T17:42:42.356Z,12.95
2023-03-10T17:47:36.636Z,11.35
2023-03-10T17:52:29.522Z,18.35
2023-03-10T17:57:21.408Z,12.40
2023-03-10T18:02:13.272Z,19.08
2023-03-10T18:07:05.186Z,18.85
2023-03-10T18:11:58.202Z,8.52
2023-03-10T18:21:41.782Z,13.07
2023-03-10T18:26:33.881Z,12.50
2023-03-10T18:31:28.343Z,12.97
2023-03-10T18:36:21.217Z,11.45
2023-03-10T18:41:13.539Z,15.38
2023-03-10T18:46:05.752Z,14.20
2023-03-10T18:50:59.651Z,11.37
2023-03-10T18:55:51.652Z,12.48
2023-03-10T19:00:43.567Z,13.32
2023-03-10T19:05:35.445Z,9.40
2023-03-10T19:10:27.289Z,10.80
2023-03-10T19:15:19.551Z,15.80
2023-03-10T19:20:13.493Z,9.90
2023-03-10T19:25:08.006Z,10.77
2023-03-10T19:30:00.103Z,7.97
2023-03-10T19:34:52.055Z,9.00
2023-03-10T19:39:43.891Z,10.55
2023-03-10T19:44:38.752Z,10.43
2023-03-10T19:49:34.288Z,11.43
2023-03-10T19:54:26.355Z,11.77
2023-03-10T19:59:18.233Z,9.07
2023-03-10T20:04:10.365Z,10.15
2023-03-10T20:09:03.856Z,9.13
2023-03-10T20:13:55.810Z,7.88
2023-03-10T20:18:47.692Z,9.95
2023-03-10T20:23:40.396Z,6.78
2023-03-10T20:28:34.663Z,8.95
2023-03-10T20:33:27.069Z,14.07
2023-03-10T20:38:18.916Z,9.17
2023-03-10T20:43:12.683Z,9.95
2023-03-10T20:48:05.209Z,8.15
2023-03-10T20:52:57.010Z,9.25
2023-03-10T20:57:51.613Z,10.15
2023-03-10T21:02:45.157Z,8.98
2023-03-10T21:07:37.245Z,7.28
2023-03-10T21:12:29.074Z,7.93
2023-03-10T21:17:21.007Z,8.95
2023-03-10T21:22:12.866Z,7.57
2023-03-10T21:27:05.394Z,10.00
2023-03-10T21:31:57.226Z,10.40
2023-03-10T21:36:49.131Z,6.68
2023-03-10T21:41:40.955Z,8.07
2023-03-10T21:46:32.980Z,9.57
2023-03-10T21:51:26.454Z,5.97
2023-03-10T21:56:19.861Z,8.52
2023-03-10T22:01:13.605Z,6.10
2023-03-10T22:06:06.016Z,6.47
2023-03-10T22:10:57.854Z,8.35
2023-03-10T22:15:50.019Z,10.45
2023-03-10T22:20:41.993Z,9.17
2023-03-10T22:25:34.840Z,9.60
2023-03-10T22:30:27.593Z,6.95
2023-03-10T22:35:19.642Z,6.22
2023-03-10T22:40:20.034Z,9.37
2023-03-10T22:45:32.344Z,6.63
2023-03-10T22:50:32.657Z,6.83
2023-03-10T22:55:25.322Z,6.35
2023-03-10T23:00:20.426Z,7.00
2023-03-10T23:05:12.626Z,5.60
2023-03-10T23:10:06.746Z,7.33
2023-03-10T23:14:59.137Z,6.95
2023-03-10T23:19:59.116Z,5.32
2023-03-10T23:24:51.201Z,4.57
2023-03-10T23:29:43.702Z,5.90
2023-03-10T23:34:35.788Z,6.25
2023-03-10T23:39:28.001Z,5.20
2023-03-10T23:44:21.144Z,5.60
2023-03-10T23:49:14.088Z,4.45
2023-03-10T23:54:06.015Z,5.20
2023-03-10T23:58:58.949Z,7.22
